Time;durP1;ratioP1;P1;durP2;ratioP2;P2;SDS_P1;SDS_P2;PMS_P1;PMS_P2;Temp;Humidity;BMP_temperature;BMP_pressure;BME280_temperature;BME280_humidity;BME280_pressure;Samples;Min_cycle;Max_cycle;Signal;HPM_P1;HPM_P2
2023/12/02 00:00:09;;;;;;;8.55;6.75;;;;;;;19.93;23.84;100468.00;4199450;28;20064;-60
2023/12/02 00:02:10;;;;;;;8.50;6.95;;;;;;;19.93;23.82;100464.50;4199127;28;20090;-60
2023/12/02 00:04:12;;;;;;;8.50;6.90;;;;;;;19.94;23.97;100469.72;4199278;28;20388;-60
2023/12/02 00:06:14;;;;;;;8.27;6.40;;;;;;;19.93;23.89;100462.66;4199229;28;20053;-60
2023/12/02 00:08:15;;;;;;;8.40;6.38;;;;;;;19.92;23.82;100468.13;4199302;28;20098;-60
2023/12/02 00:10:18;;;;;;;8.07;6.45;;;;;;;19.85;23.92;100456.25;4199232;28;20165;-60
2023/12/02 00:12:19;;;;;;;7.97;6.05;;;;;;;19.91;23.79;100469.94;4199159;28;20136;-60
2023/12/02 00:14:21;;;;;;;8.50;6.68;;;;;;;19.92;23.77;100466.31;4199352;28;20423;-60
2023/12/02 00:16:23;;;;;;;8.52;6.97;;;;;;;19.91;23.78;100467.25;4198523;28;20037;-60
2023/12/02 00:18:24;;;;;;;;;;;;;;;19.84;23.74;100452.72;4199558;28;20051;-59
2023/12/02 00:20:26;;;;;;;7.28;6.20;;;;;;;19.93;23.68;100468.00;4199347;28;20448;-59
2023/12/02 00:22:28;;;;;;;8.02;6.40;;;;;;;19.96;23.82;100464.22;4199059;28;20121;-60
2023/12/02 00:24:29;;;;;;;9.75;6.78;;;;;;;19.95;23.71;100471.41;4198643;28;20048;-60
2023/12/02 00:26:31;;;;;;;7.65;6.65;;;;;;;19.92;23.81;100474.31;4197673;28;20134;-60
2023/12/02 00:28:33;;;;;;;8.60;7.18;;;;;;;19.92;23.84;100478.81;4198894;28;20044;-60
2023/12/02 00:30:34;;;;;;;8.23;6.63;;;;;;;19.93;23.91;100472.50;4198666;28;20114;-60
2023/12/02 00:32:36;;;;;;;7.97;6.35;;;;;;;19.92;23.39;100476.13;4198588;28;20076;-60
2023/12/02 00:34:38;;;;;;;8.10;6.40;;;;;;;19.95;23.68;100473.22;4198893;28;20068;-60
2023/12/02 00:36:40;;;;;;;7.50;6.00;;;;;;;19.99;23.61;100484.50;4197513;28;20112;-59
2023/12/02 00:38:41;;;;;;;;;;;;;;;19.98;23.96;100478.31;4199201;28;20048;-60
2023/12/02 00:40:43;;;;;;;8.20;6.03;;;;;;;19.98;24.05;100478.31;4197412;28;19921;-60
2023/12/02 00:42:45;;;;;;;8.30;6.60;;;;;;;19.98;23.92;100481.00;4198672;28;20086;-60
2023/12/02 00:44:46;;;;;;;8.27;6.03;;;;;;;19.95;23.88;100466.06;4198119;28;20060;-60
2023/12/02 00:46:48;;;;;;;7.40;6.22;;;;;;;19.95;23.90;100474.06;4197896;28;20131;-60
2023/12/02 00:48:49;;;;;;;7.50;6.25;;;;;;;19.93;23.39;100473.34;4198599;28;20044;-60
2023/12/02 00:50:51;;;;;;;7.95;6.53;;;;;;;19.92;23.98;100481.47;4198685;28;20041;-60
2023/12/02 00:52:53;;;;;;;7.90;6.40;;;;;;;19.89;23.60;100471.03;4198657;28;20260;-60
2023/12/02 00:54:55;;;;;;;8.25;6.43;;;;;;;19.92;23.77;100476.13;4198385;28;20106;-60
2023/12/02 00:56:56;;;;;;;7.68;6.03;;;;;;;19.94;23.78;100472.38;4198319;28;20139;-60
2023/12/02 00:58:58;;;;;;;7.45;6.00;;;;;;;19.94;23.70;100475.03;4198248;28;20048;-60
2023/12/02 01:00:59;;;;;;;8.68;6.50;;;;;;;19.95;23.77;100474.06;4198505;28;20044;-60
2023/12/02 01:03:01;;;;;;;7.47;6.07;;;;;;;19.94;23.74;100475.03;4198498;28;20120;-60
2023/12/02 01:05:04;;;;;;;7.57;6.13;;;;;;;19.92;23.68;100478.81;4198290;28;20067;-60
2023/12/02 01:07:05;;;;;;;7.68;6.22;;;;;;;19.91;23.69;100480.63;4198164;28;20451;-59
2023/12/02 01:09:07;;;;;;;8.20;5.95;;;;;;;19.88;23.67;100477.34;4198307;28;20055;-60
2023/12/02 01:11:08;;;;;;;7.47;5.65;;;;;;;19.85;23.75;100474.91;4198301;28;20048;-60
2023/12/02 01:13:10;;;;;;;7.28;6.00;;;;;;;19.84;23.35;100478.56;4198261;28;20515;-60
2023/12/02 01:15:12;;;;;;;7.75;6.10;;;;;;;19.84;23.59;100482.06;4197714;28;20091;-61
2023/12/02 01:17:13;;;;;;;6.95;5.70;;;;;;;19.86;23.73;100479.28;4198102;28;20123;-60
2023/12/02 01:19:15;;;;;;;7.13;5.75;;;;;;;19.87;23.65;100487.16;4197977;28;20041;-60
2023/12/02 01:21:17;;;;;;;6.88;5.20;;;;;;;19.90;23.61;100491.41;4197959;28;20102;-60
2023/12/02 01:23:18;;;;;;;6.40;5.00;;;;;;;19.90;23.46;100486.06;4198147;28;20130;-60
2023/12/02 01:25:20;;;;;;;7.32;5.50;;;;;;;19.90;23.66;100488.75;4197652;28;20045;-60
2023/12/02 01:27:22;;;;;;;7.40;5.28;;;;;;;19.89;23.54;100495.06;4198063;28;20044;-60
2023/12/02 01:29:24;;;;;;;6.70;5.20;;;;;;;19.83;23.30;100496.38;4197780;28;20071;-59
2023/12/02 01:31:25;;;;;;;6.80;5.15;;;;;;;19.84;23.60;100497.25;4197782;28;20048;-60
2023/12/02 01:33:27;;;;;;;6.97;5.32;;;;;;;19.82;23.52;100489.31;4198060;28;20048;-60
2023/12/02 01:35:28;;;;;;;6.57;5.05;;;;;;;19.87;23.71;100502.34;4197969;28;20553;-60
2023/12/02 01:37:30;;;;;;;7.15;5.50;;;;;;;19.89;23.47;100503.06;4197555;28;20131;-60
2023/12/02 01:39:32;;;;;;;7.25;5.50;;;;;;;19.88;23.33;100498.69;4197931;28;20068;-59
2023/12/02 01:41:33;;;;;;;7.30;5.63;;;;;;;19.90;22.94;100502.09;4197971;28;20104;-60
2023/12/02 01:43:37;;;;;;;6.75;5.32;;;;;;;19.89;23.60;100514.59;4197149;28;20048;-60
2023/12/02 01:45:39;;;;;;;7.30;5.82;;;;;;;19.89;23.57;100506.59;4197836;28;20124;-60
2023/12/02 01:47:42;;;;;;;6.22;4.93;;;;;;;19.88;23.55;100512.03;4197610;28;20045;-60
2023/12/02 01:49:44;;;;;;;7.57;5.63;;;;;;;19.89;23.46;100511.06;4197821;28;20048;-61
2023/12/02 01:51:46;;;;;;;6.78;5.35;;;;;;;19.89;23.59;100517.28;4197624;28;20114;-60
2023/12/02 01:53:48;;;;;;;;;;;;;;;19.91;23.64;100522.47;4198104;28;20213;-60
2023/12/02 01:55:50;;;;;;;6.80;5.23;;;;;;;19.91;23.82;100522.47;4197163;28;19927;-60
2023/12/02 01:57:51;;;;;;;;;;;;;;;19.94;23.68;100533.75;4196899;28;20055;-60
2023/12/02 01:59:54;;;;;;;6.90;5.33;;;;;;;19.91;23.71;100528.66;4197110;28;19920;-60
2023/12/02 02:01:56;;;;;;;6.45;5.05;;;;;;;19.92;23.72;100538.38;4197442;28;20279;-59
2023/12/02 02:03:59;;;;;;;8.57;5.28;;;;;;;19.92;23.44;100540.19;4197501;28;20045;-59
2023/12/02 02:06:01;;;;;;;7.10;5.30;;;;;;;19.91;23.56;100547.34;4197450;28;20044;-60
2023/12/02 02:08:02;;;;;;;;;;;;;;;19.87;23.49;100556.56;4196604;28;20044;-61
2023/12/02 02:10:05;;;;;;;7.90;5.65;;;;;;;19.84;23.56;100551.44;4196156;28;19986;-60
2023/12/02 02:12:07;;;;;;;7.00;5.25;;;;;;;19.86;23.73;100556.69;4196992;28;20367;-60
2023/12/02 02:14:08;;;;;;;6.75;5.50;;;;;;;19.88;23.51;100565.41;4197178;28;20102;-60
2023/12/02 02:16:12;;;;;;;6.85;5.47;;;;;;;19.91;23.76;100562.50;4197315;28;20355;-60
2023/12/02 02:18:13;;;;;;;6.70;5.43;;;;;;;19.92;23.54;100570.41;4196035;28;20052;-61
2023/12/02 02:20:15;;;;;;;7.25;5.55;;;;;;;19.92;23.75;100567.72;4197081;28;20045;-60
2023/12/02 02:22:17;;;;;;;7.50;5.55;;;;;;;19.92;23.46;100575.72;4197145;28;20118;-60
2023/12/02 02:24:18;;;;;;;6.97;5.57;;;;;;;19.91;23.47;100573.19;4195672;28;20190;-60
2023/12/02 02:26:20;;;;;;;;;;;;;;;19.89;23.35;100581.31;4197102;28;20045;-59
2023/12/02 02:28:24;;;;;;;8.33;5.50;;;;;;;19.86;23.66;100583.38;4196962;28;20426;-60
2023/12/02 02:30:25;;;;;;;6.85;5.55;;;;;;;19.87;23.53;100575.25;4197072;28;20055;-60
2023/12/02 02:32:27;;;;;;;8.07;5.68;;;;;;;19.87;23.65;100579.75;4196945;28;20040;-60
2023/12/02 02:34:28;;;;;;;7.40;5.57;;;;;;;19.86;23.43;100573.53;4197080;28;20106;-60
2023/12/02 02:36:30;;;;;;;7.05;5.93;;;;;;;19.89;23.63;100589.34;4196880;28;20051;-60
2023/12/02 02:38:32;;;;;;;6.75;5.55;;;;;;;19.89;23.69;100580.47;4196868;28;20551;-60
2023/12/02 02:40:34;;;;;;;7.28;6.20;;;;;;;19.91;23.64;100581.19;4196644;28;20048;-60
2023/12/02 02:42:35;;;;;;;7.68;5.72;;;;;;;19.91;23.72;100590.03;4195493;28;20131;-60
2023/12/02 02:44:38;;;;;;;7.65;6.03;;;;;;;19.92;23.60;100598.91;4197021;28;20048;-60
2023/12/02 02:46:40;;;;;;;7.13;5.78;;;;;;;19.90;23.75;100593.69;4196813;28;20147;-60
2023/12/02 02:48:42;;;;;;;7.13;5.63;;;;;;;19.90;23.81;100599.03;4196899;28;20392;-62
2023/12/02 02:50:43;;;;;;;7.32;5.75;;;;;;;19.89;23.71;100597.34;4196899;28;20483;-60
2023/12/02 02:52:46;;;;;;;8.15;6.28;;;;;;;19.88;23.52;100598.31;4196702;28;20055;-61
2023/12/02 02:54:48;;;;;;;8.15;6.43;;;;;;;19.90;23.69;100598.19;4196539;28;20044;-60
2023/12/02 02:56:51;;;;;;;7.10;5.55;;;;;;;19.88;23.76;100590.28;4196304;28;20052;-60
2023/12/02 02:58:52;;;;;;;7.97;6.28;;;;;;;19.93;23.56;100598.78;4196842;28;20048;-60
2023/12/02 03:00:54;;;;;;;7.75;6.32;;;;;;;19.94;23.77;100602.31;4196551;28;20055;-60
2023/12/02 03:02:55;;;;;;;7.93;6.13;;;;;;;19.93;23.76;100605.97;4196610;28;20056;-60
2023/12/02 03:04:58;;;;;;;7.05;5.93;;;;;;;19.92;23.52;100605.09;4196687;28;20396;-60
2023/12/02 03:07:00;;;;;;;8.15;6.50;;;;;;;19.92;23.71;100610.44;4196664;28;20495;-60
2023/12/02 03:09:01;;;;;;;8.32;6.82;;;;;;;19.88;23.63;100606.31;4196181;28;20094;-60
2023/12/02 03:11:03;;;;;;;;;;;;;;;19.87;23.51;100612.59;4196779;28;20040;-60
2023/12/02 03:13:05;;;;;;;8.40;6.63;;;;;;;19.86;23.83;100616.25;4196786;28;19956;-60
2023/12/02 03:15:07;;;;;;;8.60;7.20;;;;;;;19.89;23.70;100612.47;4196415;28;20048;-59
2023/12/02 03:17:09;;;;;;;8.10;6.65;;;;;;;19.89;23.73;100608.00;4195122;28;20045;-60
2023/12/02 03:19:10;;;;;;;8.18;6.65;;;;;;;19.90;23.50;100606.19;4196649;28;20040;-60
2023/12/02 03:21:12;;;;;;;;;;;;;;;19.90;23.80;100614.19;4197021;28;20048;-61
2023/12/02 03:23:14;;;;;;;8.07;6.33;;;;;;;19.86;23.57;100607.41;4196421;28;20272;-60
2023/12/02 03:25:15;;;;;;;7.95;6.45;;;;;;;19.91;23.78;100615.91;4195893;28;20053;-60
2023/12/02 03:27:17;;;;;;;7.85;6.40;;;;;;;19.89;23.86;100615.16;4196331;28;20036;-59
2023/12/02 03:29:19;;;;;;;7.60;5.90;;;;;;;19.90;23.88;100619.53;4196624;28;20048;-60
2023/12/02 03:31:20;;;;;;;7.53;5.93;;;;;;;19.90;24.00;100620.41;4195128;28;20048;-60
2023/12/02 03:33:22;;;;;;;8.25;6.50;;;;;;;19.86;23.99;100607.41;4196546;28;20045;-60
2023/12/02 03:35:24;;;;;;;8.05;6.88;;;;;;;19.92;23.72;100615.78;4196239;28;20048;-60
2023/12/02 03:37:25;;;;;;;9.13;6.20;;;;;;;19.90;23.95;100616.84;4196359;28;20052;-60
2023/12/02 03:39:27;;;;;;;8.27;6.20;;;;;;;19.95;23.75;100620.03;4195961;28;20128;-60
2023/12/02 03:41:29;;;;;;;8.15;6.25;;;;;;;19.95;23.57;100625.34;4196336;28;20055;-60
2023/12/02 03:43:30;;;;;;;9.10;7.20;;;;;;;19.94;23.56;100626.34;4196381;28;20048;-60
2023/12/02 03:45:35;;;;;;;7.80;6.35;;;;;;;19.92;23.69;100630.94;4196363;28;20041;-60
2023/12/02 03:47:37;;;;;;;8.35;6.85;;;;;;;19.91;23.74;100630.06;4196295;28;20143;-61
2023/12/02 03:49:39;;;;;;;;;;;;;;;19.89;23.96;100640.03;4196751;28;20075;-60
2023/12/02 03:51:40;;;;;;;8.10;6.40;;;;;;;19.87;23.76;100636.63;4196427;28;19920;-60
2023/12/02 03:53:43;;;;;;;8.75;6.70;;;;;;;19.90;23.71;100641.75;4194821;28;20438;-60
2023/12/02 03:55:44;;;;;;;9.00;7.10;;;;;;;19.91;23.91;100634.56;4195943;28;20040;-60
2023/12/02 03:57:46;;;;;;;7.10;5.82;;;;;;;19.93;23.76;100638.81;4196272;28;20400;-60
2023/12/02 03:59:48;;;;;;;8.13;7.10;;;;;;;19.95;23.86;100636.03;4196003;28;20084;-60
2023/12/02 04:01:49;;;;;;;9.30;6.75;;;;;;;19.95;23.72;100636.03;4196161;28;20059;-60
2023/12/02 04:03:51;;;;;;;7.95;6.75;;;;;;;19.95;23.77;100642.25;4196256;28;20084;-60
2023/12/02 04:05:53;;;;;;;7.28;6.10;;;;;;;19.95;23.81;100650.25;4196172;28;20102;-61
2023/12/02 04:07:54;;;;;;;8.45;6.28;;;;;;;19.95;23.95;100652.06;4195735;28;20044;-60
2023/12/02 04:09:56;;;;;;;8.48;6.93;;;;;;;19.92;23.81;100646.97;4196271;28;20051;-60
2023/12/02 04:11:58;;;;;;;;;;;;;;;19.93;23.93;100654.00;4196395;28;20048;-60
2023/12/02 04:14:00;;;;;;;8.00;6.67;;;;;;;19.92;23.82;100654.97;4196155;28;20301;-60
2023/12/02 04:16:01;;;;;;;8.40;6.93;;;;;;;19.93;23.81;100649.50;4196264;28;20049;-61
2023/12/02 04:18:03;;;;;;;;;;;;;;;19.96;24.02;100667.09;4196242;28;20044;-60
2023/12/02 04:20:08;;;;;;;9.02;7.43;;;;;;;19.94;23.87;100655.72;4196257;28;20282;-60
2023/12/02 04:22:10;;;;;;;8.38;7.10;;;;;;;19.96;24.03;100664.44;4197436;28;20048;-59
2023/12/02 04:24:12;;;;;;;9.15;7.05;;;;;;;19.92;23.87;100663.81;4198637;28;20053;-59
2023/12/02 04:26:14;;;;;;;8.70;6.90;;;;;;;19.93;23.87;100670.84;4199195;28;20047;-60
2023/12/02 04:28:16;;;;;;;9.57;7.13;;;;;;;19.93;23.88;100668.19;4198880;28;20119;-59
2023/12/02 04:30:18;;;;;;;8.13;6.85;;;;;;;19.93;23.84;100676.19;4198711;28;20048;-60
2023/12/02 04:32:20;;;;;;;8.20;6.60;;;;;;;19.95;23.95;100684.06;4198706;28;20048;-60
2023/12/02 04:34:21;;;;;;;8.07;6.55;;;;;;;19.97;24.01;100689.31;4198639;28;20048;-60
2023/12/02 04:36:23;;;;;;;8.18;7.13;;;;;;;19.97;23.88;100682.16;4198814;28;20071;-60
2023/12/02 04:38:25;;;;;;;8.88;7.13;;;;;;;19.97;23.90;100681.31;4198497;28;20037;-60
2023/12/02 04:40:26;;;;;;;8.50;6.95;;;;;;;19.98;23.89;100686.53;4198877;28;20044;-60
2023/12/02 04:42:28;;;;;;;8.50;6.97;;;;;;;19.99;23.77;100690.03;4197487;28;20049;-60
2023/12/02 04:44:30;;;;;;;8.43;7.00;;;;;;;19.97;23.92;100689.31;4198739;28;20537;-60
2023/12/02 04:46:31;;;;;;;;;;;;;;;19.94;23.90;100701.94;4197889;28;20049;-61
2023/12/02 04:48:34;;;;;;;9.33;7.10;;;;;;;19.93;24.09;100704.72;4198809;28;19930;-60
2023/12/02 04:50:35;;;;;;;8.55;6.95;;;;;;;19.91;23.76;100701.31;4197276;28;20048;-60
2023/12/02 04:52:37;;;;;;;9.50;7.15;;;;;;;19.92;23.87;100705.69;4198301;28;20055;-60
2023/12/02 04:54:39;;;;;;;8.30;7.32;;;;;;;19.95;23.95;100714.31;4198632;28;20049;-60
2023/12/02 04:56:40;;;;;;;;;;;;;;;19.98;23.88;100712.34;4198986;28;20052;-60
2023/12/02 04:58:42;;;;;;;8.10;6.80;;;;;;;19.98;23.86;100715.03;4198351;28;19958;-59
2023/12/02 05:00:44;;;;;;;8.65;7.30;;;;;;;19.98;23.96;100726.56;4198592;28;20495;-59
2023/12/02 05:02:45;;;;;;;8.55;6.95;;;;;;;19.97;24.00;100724.88;4198688;28;20454;-59
2023/12/02 05:04:47;;;;;;;9.00;6.93;;;;;;;19.96;23.99;100731.16;4198345;28;20426;-60
2023/12/02 05:06:51;;;;;;;9.77;7.28;;;;;;;19.94;24.16;100733.97;4197957;28;20075;-61
2023/12/02 05:08:53;;;;;;;8.73;6.90;;;;;;;19.93;24.24;100734.91;4198250;28;20548;-60
2023/12/02 05:10:55;;;;;;;8.52;7.40;;;;;;;19.94;24.29;100735.78;4197224;28;20120;-60
2023/12/02 05:12:56;;;;;;;8.30;6.80;;;;;;;19.97;23.86;100742.72;4198317;28;20503;-60
2023/12/02 05:14:58;;;;;;;8.27;6.88;;;;;;;19.98;23.96;100749.72;4198140;28;20044;-60
2023/12/02 05:17:00;;;;;;;7.97;6.95;;;;;;;19.98;23.88;100750.59;4198365;28;20048;-61
2023/12/02 05:19:01;;;;;;;8.52;6.95;;;;;;;19.98;23.88;100755.06;4197978;28;20047;-60
2023/12/02 05:21:04;;;;;;;8.73;7.05;;;;;;;19.97;23.84;100756.91;4197726;28;20044;-59
2023/12/02 05:23:06;;;;;;;8.82;7.18;;;;;;;19.98;23.99;100757.72;4198181;28;20415;-60
2023/12/02 05:25:08;;;;;;;8.63;7.22;;;;;;;19.95;23.95;100767.69;4197880;28;20114;-59
2023/12/02 05:27:09;;;;;;;;;;;;;;;19.93;23.82;100766.94;4198458;28;20048;-59
2023/12/02 05:29:11;;;;;;;8.70;7.32;;;;;;;19.90;24.11;100775.19;4197928;28;19931;-59
2023/12/02 05:31:12;;;;;;;;;;;;;;;19.90;23.94;100775.19;4198576;28;20043;-58
2023/12/02 05:33:14;;;;;;;8.68;7.05;;;;;;;19.91;24.06;100779.56;4198056;28;20371;-59
2023/12/02 05:35:16;;;;;;;8.73;6.88;;;;;;;19.95;23.97;100783.72;4197481;28;20448;-59
2023/12/02 05:37:18;;;;;;;9.25;6.90;;;;;;;19.95;24.09;100770.38;4198189;28;20055;-59
2023/12/02 05:39:19;;;;;;;8.90;7.57;;;;;;;19.97;23.82;100782.75;4197759;28;20052;-59
2023/12/02 05:41:21;;;;;;;8.50;7.22;;;;;;;19.90;24.07;100772.53;4198072;28;20049;-60
2023/12/02 05:43:23;;;;;;;9.23;7.35;;;;;;;19.95;23.75;100786.38;4197836;28;20048;-59
2023/12/02 05:45:25;;;;;;;10.02;7.65;;;;;;;19.94;23.88;100791.84;4197782;28;20384;-59
2023/12/02 05:47:26;;;;;;;9.25;7.55;;;;;;;19.90;24.09;100793.88;4197729;28;20048;-60
2023/12/02 05:49:28;;;;;;;9.07;7.40;;;;;;;19.90;23.96;100785.00;4197444;28;20060;-59
2023/12/02 05:51:30;;;;;;;9.48;6.85;;;;;;;19.93;23.89;100808.81;4197526;28;20123;-60
2023/12/02 05:53:32;;;;;;;9.10;7.55;;;;;;;19.94;23.88;100805.19;4197663;28;20045;-60
2023/12/02 05:55:33;;;;;;;;;;;;;;;19.94;23.94;100814.03;4198112;28;20101;-60
2023/12/02 05:57:35;;;;;;;11.60;7.97;;;;;;;19.91;24.02;100814.25;4197712;28;19928;-60
2023/12/02 05:59:38;;;;;;;10.05;7.90;;;;;;;19.93;23.84;100817.66;4197339;28;20313;-60
2023/12/02 06:01:39;;;;;;;9.82;7.78;;;;;;;19.92;24.01;100825.78;4197558;28;20174;-59
2023/12/02 06:03:41;;;;;;;9.00;7.50;;;;;;;19.92;23.90;100826.63;4197380;28;20132;-59
2023/12/02 06:05:43;;;;;;;10.18;7.82;;;;;;;19.90;23.91;100830.38;4197303;28;20044;-60
2023/12/02 06:07:44;;;;;;;9.35;7.75;;;;;;;19.89;24.21;100823.34;4197186;28;20083;-60
2023/12/02 06:09:46;;;;;;;9.10;7.28;;;;;;;19.87;24.10;100828.81;4197436;28;20040;-60
2023/12/02 06:11:50;;;;;;;8.90;7.45;;;;;;;19.90;24.07;100830.38;4197452;28;20128;-59
2023/12/02 06:13:52;;;;;;;9.75;7.72;;;;;;;19.91;23.92;100834.75;4197339;28;20056;-59
2023/12/02 06:15:53;;;;;;;;;;;;;;;19.92;23.96;100844.47;4197761;28;20071;-60
2023/12/02 06:17:56;;;;;;;9.43;7.40;;;;;;;19.91;24.16;100848.09;4197055;28;19920;-59
2023/12/02 06:19:58;;;;;;;9.30;7.63;;;;;;;19.93;24.14;100862.22;4197118;28;20047;-59
2023/12/02 06:22:00;;;;;;;9.20;7.97;;;;;;;19.91;24.21;100859.63;4197167;28;20055;-58
2023/12/02 06:24:01;;;;;;;10.00;7.72;;;;;;;19.90;24.21;100863.28;4197044;28;20617;-59
2023/12/02 06:26:03;;;;;;;;;;;;;;;19.89;24.16;100858.03;4197435;28;20468;-59
2023/12/02 06:28:05;;;;;;;9.38;7.18;;;;;;;19.85;24.30;100865.41;4197068;28;19926;-59
2023/12/02 06:30:08;;;;;;;9.75;7.82;;;;;;;19.89;24.22;100866.91;4197035;28;20501;-59
2023/12/02 06:32:13;;;;;;;9.68;7.90;;;;;;;19.91;24.26;100870.31;4197008;28;20068;-60
2023/12/02 06:34:14;;;;;;;9.63;7.75;;;;;;;19.93;24.19;100867.53;4196515;28;20044;-59
2023/12/02 06:36:16;;;;;;;11.32;9.40;;;;;;;19.93;24.09;100876.41;4196943;28;20127;-57
2023/12/02 06:38:18;;;;;;;11.98;8.98;;;;;;;19.93;23.76;100881.72;4196823;28;20071;-59
2023/12/02 06:40:19;;;;;;;10.02;8.57;;;;;;;19.89;23.71;100885.59;4197088;28;20079;-58
2023/12/02 06:42:21;;;;;;;10.85;9.38;;;;;;;19.88;24.05;100885.69;4196903;28;20048;-58
2023/12/02 06:44:23;;;;;;;11.20;9.40;;;;;;;19.90;23.88;100887.31;4196541;28;20051;-60
2023/12/02 06:46:24;;;;;;;11.23;9.32;;;;;;;19.91;23.85;100890.81;4196579;28;20037;-58
2023/12/02 06:48:26;;;;;;;10.38;8.43;;;;;;;19.83;24.01;100877.13;4195433;28;20482;-58
2023/12/02 06:50:28;;;;;;;9.95;8.55;;;;;;;19.93;23.94;100894.25;4195475;28;20443;-58
2023/12/02 06:52:29;;;;;;;10.60;9.25;;;;;;;19.95;23.93;100893.16;4196642;28;20059;-58
2023/12/02 06:54:36;;;;;;;10.95;8.63;;;;;;;19.98;23.63;100897.41;4196764;28;20078;-59
2023/12/02 06:56:38;;;;;;;10.88;9.30;;;;;;;19.98;23.80;100892.09;4196766;28;20055;-59
2023/12/02 06:58:39;;;;;;;10.13;8.85;;;;;;;19.98;23.67;100901.88;4196456;28;20074;-58
2023/12/02 07:00:41;;;;;;;11.60;9.52;;;;;;;19.96;23.69;100899.34;4196643;28;20416;-58
2023/12/02 07:02:43;;;;;;;11.75;8.65;;;;;;;19.95;23.89;100905.63;4196100;28;20048;-59
2023/12/02 07:04:46;;;;;;;9.77;8.50;;;;;;;19.94;24.02;100911.97;4196673;28;20059;-59
2023/12/02 07:06:47;;;;;;;10.43;8.43;;;;;;;19.92;24.02;100913.88;4196392;28;20109;-58
2023/12/02 07:08:50;;;;;;;11.27;8.90;;;;;;;19.91;23.88;100917.50;4196372;28;20080;-58
2023/12/02 07:10:52;;;;;;;10.13;7.93;;;;;;;19.91;23.87;100925.53;4196405;28;20149;-58
2023/12/02 07:12:53;;;;;;;10.30;8.25;;;;;;;19.85;23.84;100908.13;4196479;28;20133;-59
2023/12/02 07:14:55;;;;;;;11.02;8.15;;;;;;;19.96;24.03;100928.69;4196373;28;20048;-58
2023/12/02 07:16:57;;;;;;;10.30;8.38;;;;;;;19.96;23.81;100934.03;4196023;28;20045;-58
2023/12/02 07:18:59;;;;;;;11.65;8.95;;;;;;;19.94;23.90;100933.31;4196325;28;20037;-58
2023/12/02 07:21:01;;;;;;;;;;;;;;;19.94;23.84;100944.84;4196904;28;20044;-58
2023/12/02 07:23:03;;;;;;;10.55;8.80;;;;;;;19.91;23.75;100941.53;4196747;28;19946;-58
2023/12/02 07:25:04;;;;;;;10.05;8.07;;;;;;;19.93;24.09;100947.63;4196161;28;20118;-58
2023/12/02 07:27:06;;;;;;;9.63;7.63;;;;;;;19.92;24.12;100945.91;4195212;28;20052;-58
2023/12/02 07:29:08;;;;;;;10.10;8.05;;;;;;;19.91;23.97;100953.06;4196115;28;20080;-59
2023/12/02 07:31:13;;;;;;;10.23;8.75;;;;;;;19.93;24.09;100952.97;4196115;28;20044;-58
2023/12/02 07:33:16;;;;;;;10.10;7.90;;;;;;;19.93;23.79;100951.13;4196330;28;20073;-59
2023/12/02 07:35:17;;;;;;;10.20;8.43;;;;;;;19.97;24.05;100958.94;4196523;28;20045;-59
2023/12/02 07:37:19;;;;;;;10.10;8.45;;;;;;;19.98;23.89;100963.28;4196435;28;20483;-59
2023/12/02 07:39:21;;;;;;;9.80;8.23;;;;;;;19.97;23.93;100969.63;4196352;28;20145;-59
2023/12/02 07:41:22;;;;;;;10.63;8.70;;;;;;;19.96;23.94;100968.75;4196481;28;20079;-59
2023/12/02 07:43:24;;;;;;;9.88;8.48;;;;;;;19.95;23.89;100961.69;4196336;28;20044;-58
2023/12/02 07:45:26;;;;;;;10.02;8.52;;;;;;;19.93;23.74;100964.47;4195840;28;20162;-59
2023/12/02 07:47:27;;;;;;;9.57;7.97;;;;;;;19.94;23.95;100968.03;4196468;28;20340;-59
2023/12/02 07:49:29;;;;;;;11.43;8.48;;;;;;;19.93;23.78;100967.16;4196260;28;20044;-59
2023/12/02 07:51:31;;;;;;;10.32;8.38;;;;;;;19.94;24.06;100974.19;4196353;28;20044;-59
2023/12/02 07:53:32;;;;;;;10.57;8.18;;;;;;;19.94;23.87;100976.88;4196190;28;20044;-58
2023/12/02 07:55:34;;;;;;;10.30;8.68;;;;;;;19.96;23.77;100976.75;4196450;28;20522;-58
2023/12/02 07:57:36;;;;;;;9.80;8.30;;;;;;;19.98;23.94;100973.97;4198672;28;20116;-58
2023/12/02 07:59:38;;;;;;;9.48;8.20;;;;;;;19.97;23.94;100978.47;4199211;28;20383;-58
2023/12/02 08:01:40;;;;;;;9.98;8.32;;;;;;;19.94;24.05;100984.88;4199245;28;20519;-58
2023/12/02 08:03:41;;;;;;;10.25;8.68;;;;;;;19.96;24.02;100992.78;4199269;28;20072;-59
2023/12/02 08:05:44;;;;;;;9.90;8.48;;;;;;;19.94;23.97;100994.72;4197991;28;20052;-58
2023/12/02 08:07:46;;;;;;;10.55;8.25;;;;;;;19.90;23.80;101001.22;4199229;28;20051;-59
2023/12/02 08:09:47;;;;;;;10.85;8.65;;;;;;;19.93;24.01;101009.88;4199380;28;20067;-58
2023/12/02 08:11:49;;;;;;;9.90;7.57;;;;;;;19.96;23.92;101011.47;4199268;28;20434;-59
2023/12/02 08:13:51;;;;;;;9.95;8.52;;;;;;;19.97;24.07;101004.31;4199280;28;20521;-58
2023/12/02 08:15:53;;;;;;;10.27;8.55;;;;;;;19.96;24.06;101011.47;4198883;28;20084;-58
2023/12/02 08:17:54;;;;;;;;;;;;;;;19.97;23.81;101017.66;4200007;28;20054;-59
2023/12/02 08:19:56;;;;;;;9.60;8.40;;;;;;;19.93;23.88;101017.88;4198857;28;19924;-59
2023/12/02 08:21:58;;;;;;;;;;;;;;;19.93;23.96;101022.38;4199152;28;20055;-58
2023/12/02 08:23:59;;;;;;;10.27;8.40;;;;;;;19.91;24.15;101026.94;4198864;28;20276;-59
2023/12/02 08:26:02;;;;;;;10.27;8.52;;;;;;;19.91;23.98;101027.78;4198952;28;20090;-59
2023/12/02 08:28:04;;;;;;;11.30;9.07;;;;;;;19.91;24.29;101033.13;4197856;28;20054;-61
2023/12/02 08:30:07;;;;;;;10.55;8.85;;;;;;;19.92;23.94;101040.19;4198460;28;20045;-58
2023/12/02 08:32:09;;;;;;;10.75;8.82;;;;;;;19.93;24.03;101044.56;4199065;28;20049;-58
2023/12/02 08:34:10;;;;;;;10.55;8.85;;;;;;;19.95;24.00;101039.13;4198788;28;20052;-58
2023/12/02 08:36:16;;;;;;;9.90;8.60;;;;;;;19.95;23.87;101045.31;4198486;28;20049;-58
2023/12/02 08:38:18;;;;;;;10.00;8.88;;;;;;;19.97;23.74;101050.53;4198950;28;20067;-59
2023/12/02 08:40:19;;;;;;;11.18;9.20;;;;;;;19.95;24.14;101056.00;4198750;28;20136;-58
2023/12/02 08:42:21;;;;;;;11.25;8.88;;;;;;;19.94;23.81;101053.44;4198783;28;20079;-58
2023/12/02 08:44:24;;;;;;;10.43;8.75;;;;;;;19.93;24.14;101057.06;4198370;28;20407;-58
2023/12/02 08:46:25;;;;;;;11.52;9.00;;;;;;;19.91;24.00;101061.66;4198627;28;20048;-59
2023/12/02 08:48:27;;;;;;;;;;;;;;;19.90;24.04;101057.28;4199307;28;20392;-58
2023/12/02 08:50:29;;;;;;;10.73;9.30;;;;;;;19.90;23.97;101067.94;4198460;28;19920;-58
2023/12/02 08:52:31;;;;;;;10.80;9.23;;;;;;;19.92;23.78;101066.88;4198599;28;20290;-59
2023/12/02 08:54:32;;;;;;;;;;;;;;;19.92;23.97;101066.88;4199003;28;20527;-58
2023/12/02 08:56:34;;;;;;;13.38;9.98;;;;;;;19.90;23.86;101066.16;4198483;28;20021;-59
2023/12/02 08:58:36;;;;;;;10.65;9.02;;;;;;;19.93;23.88;101078.44;4198349;28;20143;-58
2023/12/02 09:00:38;;;;;;;12.02;9.77;;;;;;;19.92;23.83;101076.72;4198392;28;20507;-58
2023/12/02 09:02:39;;;;;;;10.82;9.45;;;;;;;19.93;23.68;101083.78;4198427;28;20398;-58
2023/12/02 09:04:41;;;;;;;11.10;9.30;;;;;;;19.91;23.95;101080.34;4198388;28;20049;-59
2023/12/02 09:06:43;;;;;;;11.68;9.10;;;;;;;19.92;24.02;101092.72;4198383;28;20521;-58
2023/12/02 09:08:44;;;;;;;10.80;9.43;;;;;;;19.94;24.08;101101.50;4197995;28;20491;-58
2023/12/02 09:10:46;;;;;;;11.43;8.73;;;;;;;19.97;23.69;101097.75;4198260;28;20052;-58
2023/12/02 09:12:48;;;;;;;10.73;9.40;;;;;;;19.97;23.96;101093.25;4198268;28;20052;-58
2023/12/02 09:15:07;;;;;;;11.65;9.25;;;;;;;19.98;23.74;101091.44;4198024;28;20044;-59
2023/12/02 09:17:46;;;;;;;11.52;9.35;;;;;;;19.98;23.82;101105.66;4198137;28;20418;-58
2023/12/02 09:19:53;;;;;;;11.43;10.10;;;;;;;19.93;23.85;101107.78;4180282;28;20049;-59
2023/12/02 09:21:55;;;;;;;12.35;10.00;;;;;;;19.91;23.74;101113.22;4198177;28;20045;-59
2023/12/02 09:24:03;;;;;;;11.00;9.10;;;;;;;19.90;23.90;101118.66;4197789;28;20578;-59
2023/12/02 09:26:25;;;;;;;11.48;9.75;;;;;;;19.96;23.87;101112.91;4197802;28;20372;-58
2023/12/02 09:28:29;;;;;;;12.27;10.00;;;;;;;20.00;23.83;101116.22;4198136;28;20124;-58
2023/12/02 09:30:31;;;;;;;11.50;9.60;;;;;;;20.07;23.71;101122.84;4198008;28;20044;-59